Time;durP1;ratioP1;P1;durP2;ratioP2;P2;SDS_P1;SDS_P2;PMS_P1;PMS_P2;Temp;Humidity;BMP_temperature;BMP_pressure;BME280_temperature;BME280_humidity;BME280_pressure;Samples;Min_cycle;Max_cycle;Signal;HPM_P1;HPM_P2
2024/01/31 00:01:54;;;;;;;28.20;12.43;;;7.10;99.90;;;;;;5013556;28;20034;-66
2024/01/31 00:04:19;;;;;;;40.03;13.73;;;7.00;99.90;;;;;;5014278;28;20056;-65
2024/01/31 00:06:50;;;;;;;26.92;12.43;;;7.00;99.90;;;;;;5014162;28;20369;-65
2024/01/31 00:09:15;;;;;;;27.73;13.02;;;7.00;99.90;;;;;;5013658;28;20038;-66
2024/01/31 00:11:41;;;;;;;29.38;13.48;;;7.00;99.90;;;;;;5013679;28;20041;-66
2024/01/31 00:14:07;;;;;;;31.90;13.48;;;7.10;99.90;;;;;;5013742;28;20026;-65
2024/01/31 00:16:33;;;;;;;32.50;13.98;;;7.10;99.90;;;;;;5013924;28;20025;-65
2024/01/31 00:18:59;;;;;;;29.20;13.23;;;7.00;99.90;;;;;;5013899;28;20484;-66
2024/01/31 00:21:24;;;;;;;27.40;13.57;;;7.10;99.90;;;;;;5013865;28;20079;-65
2024/01/31 00:23:50;;;;;;;29.13;13.43;;;7.10;99.90;;;;;;5013427;28;20034;-65
2024/01/31 00:26:16;;;;;;;29.02;13.63;;;7.00;99.90;;;;;;5013976;28;20034;-65
2024/01/31 00:28:41;;;;;;;29.90;13.65;;;7.00;99.90;;;;;;5013619;28;20080;-65
2024/01/31 00:31:11;;;;;;;32.85;13.93;;;7.10;99.90;;;;;;5013707;28;20045;-65
2024/01/31 00:33:37;;;;;;;33.08;13.98;;;7.00;99.90;;;;;;5013580;28;20496;-65
2024/01/31 00:36:02;;;;;;;29.60;12.50;;;7.00;99.90;;;;;;5013648;28;20034;-65
2024/01/31 00:38:28;;;;;;;27.75;13.82;;;7.00;99.90;;;;;;5013714;28;20033;-65
2024/01/31 00:40:54;;;;;;;30.20;12.75;;;7.00;99.90;;;;;;5013769;28;20384;-66
2024/01/31 00:43:19;;;;;;;29.60;12.90;;;7.00;99.90;;;;;;5013290;28;20030;-65
2024/01/31 00:45:45;;;;;;;32.33;13.10;;;7.00;99.90;;;;;;5013638;28;20386;-65
2024/01/31 00:48:11;;;;;;;28.38;12.50;;;7.00;99.90;;;;;;5013467;28;20030;-65
2024/01/31 00:50:36;;;;;;;24.98;11.70;;;7.00;99.90;;;;;;5013399;28;20080;-65
2024/01/31 00:53:02;;;;;;;31.40;12.57;;;7.00;99.90;;;;;;5013332;28;20368;-65
2024/01/31 00:55:27;;;;;;;26.63;12.60;;;6.90;99.90;;;;;;5013408;28;20479;-65
2024/01/31 00:57:54;;;;;;;24.83;12.10;;;6.90;99.90;;;;;;5013480;28;20026;-65
2024/01/31 01:00:23;;;;;;;28.38;12.48;;;7.00;99.90;;;;;;5013583;28;20361;-65
2024/01/31 01:02:49;;;;;;;29.10;11.85;;;6.90;99.90;;;;;;5013258;28;20122;-66
2024/01/31 01:05:14;;;;;;;26.13;12.05;;;6.90;99.90;;;;;;5013506;28;20105;-66
2024/01/31 01:07:41;;;;;;;26.00;11.65;;;6.90;99.90;;;;;;5013283;28;20033;-65
2024/01/31 01:10:11;;;;;;;26.50;11.68;;;6.80;99.90;;;;;;5013301;28;20029;-66
2024/01/31 01:12:37;;;;;;;26.77;12.07;;;6.80;99.90;;;;;;5014825;28;20112;-65
2024/01/31 01:15:03;;;;;;;28.27;12.32;;;6.80;99.90;;;;;;5016896;28;20069;-66
2024/01/31 01:17:28;;;;;;;23.63;12.55;;;6.80;99.90;;;;;;5017256;28;20030;-66
2024/01/31 01:19:54;;;;;;;32.30;12.60;;;6.80;99.90;;;;;;5017243;28;20037;-65
2024/01/31 01:22:19;;;;;;;24.33;11.52;;;6.80;99.90;;;;;;5017264;28;20034;-66
2024/01/31 01:24:45;;;;;;;22.77;10.95;;;6.80;99.90;;;;;;5016794;28;20507;-65
2024/01/31 01:27:10;;;;;;;18.83;8.90;;;6.80;99.90;;;;;;5016595;28;20503;-65
2024/01/31 01:29:36;;;;;;;17.88;8.45;;;6.70;99.90;;;;;;5016658;28;20056;-65
2024/01/31 01:32:02;;;;;;;19.05;8.48;;;6.70;99.90;;;;;;5016882;28;20040;-65
2024/01/31 01:34:28;;;;;;;14.70;6.22;;;6.70;99.90;;;;;;5016664;28;20026;-65
2024/01/31 01:36:53;;;;;;;11.60;5.32;;;6.60;99.90;;;;;;5016476;28;20025;-65
2024/01/31 01:39:19;;;;;;;10.50;4.90;;;6.60;99.90;;;;;;5016862;28;20029;-65
2024/01/31 01:41:48;;;;;;;9.48;4.68;;;6.50;99.90;;;;;;5016662;28;20037;-65
2024/01/31 01:44:14;;;;;;;12.30;4.45;;;6.50;99.90;;;;;;5016446;28;20508;-65
2024/01/31 01:46:40;;;;;;;11.23;4.13;;;6.40;99.90;;;;;;5016716;28;20037;-65
2024/01/31 01:49:06;;;;;;;9.65;3.47;;;6.40;99.90;;;;;;5016192;28;20033;-65
2024/01/31 01:51:32;;;;;;;6.18;3.58;;;6.40;99.90;;;;;;5016642;28;20395;-65
2024/01/31 01:53:58;;;;;;;7.60;3.33;;;6.40;99.90;;;;;;5016067;28;20026;-65
2024/01/31 01:56:24;;;;;;;9.93;3.58;;;6.40;99.90;;;;;;5016009;28;20465;-65
2024/01/31 01:58:52;;;;;;;7.43;3.72;;;6.30;99.90;;;;;;5016520;28;20395;-66
2024/01/31 02:01:18;;;;;;;10.88;3.45;;;6.30;99.90;;;;;;5016485;28;20428;-65
2024/01/31 02:03:44;;;;;;;7.50;3.80;;;6.20;99.90;;;;;;5016272;28;20084;-65
2024/01/31 02:06:10;;;;;;;9.02;3.42;;;6.20;99.90;;;;;;5016177;28;20137;-65
2024/01/31 02:08:35;;;;;;;8.23;3.42;;;6.10;99.90;;;;;;5016287;28;20033;-65
2024/01/31 02:11:01;;;;;;;9.13;3.75;;;6.20;99.90;;;;;;5016389;28;20052;-65
2024/01/31 02:13:28;;;;;;;9.00;3.35;;;6.20;99.90;;;;;;5016229;28;20079;-65
2024/01/31 02:15:55;;;;;;;12.90;3.78;;;6.20;99.90;;;;;;5016228;28;20064;-65
2024/01/31 02:18:24;;;;;;;9.55;3.92;;;6.10;99.90;;;;;;5016218;28;20018;-66
2024/01/31 02:20:50;;;;;;;9.18;3.85;;;6.10;99.90;;;;;;5016161;28;20026;-65
2024/01/31 02:23:15;;;;;;;11.30;4.10;;;6.10;99.90;;;;;;5015815;28;20410;-65
2024/01/31 02:25:41;;;;;;;10.05;3.85;;;6.10;99.90;;;;;;5015414;28;20117;-65
2024/01/31 02:28:07;;;;;;;10.45;3.83;;;6.10;99.90;;;;;;5015902;28;20502;-65
2024/01/31 02:30:32;;;;;;;15.65;4.35;;;6.10;99.90;;;;;;5015869;28;20033;-65
2024/01/31 02:32:58;;;;;;;7.75;4.28;;;6.10;99.90;;;;;;5015778;28;20364;-65
2024/01/31 02:35:24;;;;;;;9.20;3.95;;;6.10;99.90;;;;;;5015971;28;20034;-65
2024/01/31 02:37:50;;;;;;;12.48;4.63;;;6.10;99.90;;;;;;5015796;28;20526;-65
2024/01/31 02:40:16;;;;;;;12.63;4.63;;;6.00;99.90;;;;;;5015897;28;20029;-65
2024/01/31 02:42:42;;;;;;;7.03;4.43;;;6.00;99.90;;;;;;5015710;28;20145;-65
2024/01/31 02:45:08;;;;;;;12.95;5.20;;;6.00;99.90;;;;;;5015289;28;20431;-65
2024/01/31 02:47:33;;;;;;;10.35;4.60;;;6.00;99.90;;;;;;5015674;28;20022;-66
2024/01/31 02:50:00;;;;;;;13.80;4.93;;;6.00;99.90;;;;;;5015493;28;20026;-65
2024/01/31 02:52:26;;;;;;;13.23;4.95;;;6.00;99.90;;;;;;5015518;28;20037;-65
2024/01/31 02:54:52;;;;;;;13.40;5.13;;;6.00;99.90;;;;;;5015319;28;20025;-66
2024/01/31 02:57:19;;;;;;;13.75;5.63;;;6.00;99.90;;;;;;5015367;28;20391;-65
2024/01/31 02:59:44;;;;;;;13.63;5.18;;;6.00;99.90;;;;;;5015281;28;20022;-65
2024/01/31 03:02:10;;;;;;;17.38;5.18;;;6.00;99.90;;;;;;5015331;28;20026;-65
2024/01/31 03:04:36;;;;;;;10.77;4.80;;;6.00;99.90;;;;;;5014788;28;20103;-65
2024/01/31 03:07:01;;;;;;;9.40;5.00;;;6.00;99.90;;;;;;5015288;28;20504;-66
2024/01/31 03:09:27;;;;;;;13.70;5.35;;;6.00;99.90;;;;;;5015037;28;20034;-65
2024/01/31 03:11:53;;;;;;;13.02;4.95;;;5.90;99.90;;;;;;5015196;28;20361;-65
2024/01/31 03:14:19;;;;;;;13.20;4.90;;;6.00;99.90;;;;;;5014558;28;20033;-66
2024/01/31 03:16:45;;;;;;;14.63;4.97;;;6.00;99.90;;;;;;5014553;28;20502;-66
2024/01/31 03:19:10;;;;;;;13.77;4.80;;;6.00;99.90;;;;;;5014978;28;20472;-65
2024/01/31 03:21:36;;;;;;;16.70;5.05;;;5.90;99.90;;;;;;5014969;28;20032;-65
2024/01/31 03:24:02;;;;;;;10.02;4.60;;;5.90;99.90;;;;;;5014859;28;20057;-65
2024/01/31 03:26:28;;;;;;;12.13;4.22;;;5.90;99.90;;;;;;5014745;28;20459;-65
2024/01/31 03:28:54;;;;;;;13.07;4.13;;;5.90;99.90;;;;;;5014935;28;20056;-66
2024/01/31 03:31:19;;;;;;;10.40;4.05;;;5.90;99.90;;;;;;5014724;28;20026;-65
2024/01/31 03:33:45;;;;;;;9.02;4.00;;;5.90;99.90;;;;;;5014474;28;20522;-65
2024/01/31 03:36:11;;;;;;;10.15;4.22;;;5.90;99.90;;;;;;5013674;28;20030;-65
2024/01/31 03:38:37;;;;;;;10.57;4.43;;;5.90;99.90;;;;;;5014628;28;20072;-65
2024/01/31 03:41:05;;;;;;;9.85;3.85;;;5.90;99.90;;;;;;5014417;28;20435;-65
2024/01/31 03:43:31;;;;;;;14.90;4.20;;;5.90;99.90;;;;;;5014410;28;20124;-65
2024/01/31 03:45:56;;;;;;;12.55;4.20;;;5.80;99.90;;;;;;5014518;28;20129;-66
2024/01/31 03:48:22;;;;;;;7.78;3.60;;;5.80;99.90;;;;;;5014497;28;20053;-66
2024/01/31 03:50:47;;;;;;;12.38;4.47;;;5.80;99.90;;;;;;5014444;28;20068;-65
2024/01/31 03:53:13;;;;;;;9.70;3.78;;;5.80;99.90;;;;;;5014165;28;20036;-65
2024/01/31 03:55:39;;;;;;;8.70;3.50;;;5.80;99.90;;;;;;5013851;28;20029;-65
2024/01/31 03:58:05;;;;;;;11.82;3.63;;;5.80;99.90;;;;;;5014191;28;20030;-65
2024/01/31 04:00:30;;;;;;;8.82;3.65;;;5.80;99.90;;;;;;5014167;28;20036;-65
2024/01/31 04:02:56;;;;;;;9.68;3.40;;;5.70;99.90;;;;;;5014197;28;20111;-65
2024/01/31 04:05:22;;;;;;;6.10;3.65;;;5.70;99.90;;;;;;5014223;28;20018;-66
2024/01/31 04:07:47;;;;;;;9.68;3.78;;;5.70;99.90;;;;;;5013764;28;20025;-65
2024/01/31 04:10:14;;;;;;;14.13;4.63;;;5.70;99.90;;;;;;5014091;28;20057;-65
2024/01/31 04:12:39;;;;;;;15.88;4.03;;;5.70;99.90;;;;;;5013999;28;20050;-65
2024/01/31 04:15:05;;;;;;;9.48;4.25;;;5.70;99.90;;;;;;5013721;28;20088;-65
2024/01/31 04:17:31;;;;;;;10.32;3.90;;;5.70;99.90;;;;;;5013725;28;20121;-65
2024/01/31 04:19:56;;;;;;;9.35;4.10;;;5.70;99.90;;;;;;5013526;28;20112;-66
2024/01/31 04:22:22;;;;;;;7.22;3.33;;;5.70;99.90;;;;;;5013940;28;20114;-66
2024/01/31 04:24:47;;;;;;;10.55;4.07;;;5.70;99.90;;;;;;5014018;28;20109;-66
2024/01/31 04:27:13;;;;;;;6.90;3.80;;;5.70;99.90;;;;;;5014047;28;20040;-66
2024/01/31 04:29:39;;;;;;;6.70;3.03;;;5.70;99.90;;;;;;5013758;28;20034;-66
2024/01/31 04:32:06;;;;;;;5.55;2.75;;;5.60;99.90;;;;;;5013522;28;20033;-66
2024/01/31 04:34:32;;;;;;;5.70;2.33;;;5.60;99.90;;;;;;5013262;28;20034;-65
2024/01/31 04:36:57;;;;;;;11.13;3.03;;;5.60;99.90;;;;;;5013663;28;20034;-66
2024/01/31 04:39:23;;;;;;;6.22;2.30;;;5.70;99.90;;;;;;5013643;28;20026;-66
2024/01/31 04:41:48;;;;;;;4.38;2.33;;;5.60;99.90;;;;;;5013742;28;20034;-65
2024/01/31 04:44:14;;;;;;;5.25;2.47;;;5.70;99.90;;;;;;5013251;28;20058;-65
2024/01/31 04:46:39;;;;;;;7.18;2.35;;;5.60;99.90;;;;;;5013287;28;20026;-65
2024/01/31 04:49:05;;;;;;;3.80;2.00;;;5.60;99.90;;;;;;5013620;28;20503;-65
2024/01/31 04:51:30;;;;;;;4.07;2.25;;;5.60;99.90;;;;;;5013567;28;20100;-66
2024/01/31 04:53:56;;;;;;;3.42;1.83;;;5.60;99.90;;;;;;5013013;28;20040;-66
2024/01/31 04:56:21;;;;;;;6.70;2.05;;;5.60;99.90;;;;;;5013512;28;20042;-65
2024/01/31 04:58:47;;;;;;;3.70;1.88;;;5.60;99.90;;;;;;5013278;28;20072;-66
2024/01/31 05:01:12;;;;;;;7.93;2.58;;;5.60;99.90;;;;;;5013315;28;20422;-66
2024/01/31 05:03:38;;;;;;;3.75;1.90;;;5.60;99.90;;;;;;5013197;28;20028;-65
2024/01/31 05:06:04;;;;;;;6.53;2.40;;;5.60;99.90;;;;;;5013441;28;20037;-65
2024/01/31 05:08:29;;;;;;;3.95;1.95;;;5.60;99.90;;;;;;5013236;28;20095;-66
2024/01/31 05:10:55;;;;;;;4.07;2.00;;;5.60;99.90;;;;;;5013226;28;20109;-66
2024/01/31 05:13:21;;;;;;;5.57;2.10;;;5.50;99.90;;;;;;5013264;28;20437;-66
2024/01/31 05:15:46;;;;;;;5.55;2.08;;;5.60;99.90;;;;;;5013232;28;20109;-66
2024/01/31 05:18:12;;;;;;;5.63;1.92;;;5.60;99.90;;;;;;5013197;28;20096;-65
2024/01/31 05:20:38;;;;;;;4.35;1.80;;;5.60;99.90;;;;;;5013053;28;20057;-65
2024/01/31 05:23:04;;;;;;;6.53;1.95;;;5.50;99.90;;;;;;5013213;28;20026;-66
2024/01/31 05:25:29;;;;;;;6.28;2.20;;;5.50;99.90;;;;;;5013179;28;20026;-66
2024/01/31 05:27:55;;;;;;;2.72;1.67;;;5.50;99.90;;;;;;5013183;28;20059;-65
2024/01/31 05:30:21;;;;;;;6.13;2.00;;;5.50;99.90;;;;;;5012766;28;20132;-65
2024/01/31 05:32:47;;;;;;;4.03;1.90;;;5.50;99.90;;;;;;5013052;28;20369;-65
2024/01/31 05:35:13;;;;;;;3.83;1.85;;;5.50;99.90;;;;;;5012822;28;20033;-65
2024/01/31 05:37:39;;;;;;;3.17;1.73;;;5.50;99.90;;;;;;5013078;28;20026;-66
2024/01/31 05:40:05;;;;;;;3.67;1.52;;;5.50;99.90;;;;;;5012785;28;20026;-66
2024/01/31 05:42:30;;;;;;;5.22;2.15;;;5.50;99.90;;;;;;5012943;28;20378;-66
2024/01/31 05:44:57;;;;;;;3.47;2.00;;;5.50;99.90;;;;;;5012700;28;20100;-66
2024/01/31 05:47:23;;;;;;;2.63;1.85;;;5.40;99.90;;;;;;5013077;28;20514;-66
2024/01/31 05:49:48;;;;;;;3.80;1.98;;;5.50;99.90;;;;;;5012984;28;20063;-65
2024/01/31 05:52:14;;;;;;;2.50;1.70;;;5.50;99.90;;;;;;5012939;28;20029;-66
2024/01/31 05:54:40;;;;;;;3.08;1.80;;;5.50;99.90;;;;;;5012686;28;20499;-65
2024/01/31 05:57:06;;;;;;;3.30;2.05;;;5.50;99.90;;;;;;5012814;28;20113;-65
2024/01/31 05:59:32;;;;;;;6.85;2.50;;;5.50;99.90;;;;;;5014307;28;20041;-65
2024/01/31 06:01:58;;;;;;;4.47;1.80;;;5.50;99.90;;;;;;5016474;28;20480;-65
2024/01/31 06:04:23;;;;;;;6.65;2.22;;;5.50;99.90;;;;;;5016521;28;20029;-67
2024/01/31 06:06:49;;;;;;;5.70;2.33;;;5.50;99.90;;;;;;5015925;28;20523;-65
2024/01/31 06:09:14;;;;;;;5.30;2.20;;;5.50;99.90;;;;;;5016174;28;20081;-66
2024/01/31 06:11:40;;;;;;;3.92;2.42;;;5.50;99.90;;;;;;5016266;28;20033;-65
2024/01/31 06:14:06;;;;;;;4.10;2.15;;;5.50;99.90;;;;;;5015993;28;20101;-65
2024/01/31 06:16:33;;;;;;;3.78;2.42;;;5.50;99.90;;;;;;5016175;28;20022;-65
2024/01/31 06:19:01;;;;;;;4.57;2.25;;;5.40;99.90;;;;;;5015914;28;20053;-65
2024/01/31 06:21:27;;;;;;;5.55;2.38;;;5.50;99.90;;;;;;5015862;28;20034;-65
2024/01/31 06:23:52;;;;;;;5.47;2.20;;;5.40;99.90;;;;;;5016363;28;20045;-66
2024/01/31 06:26:18;;;;;;;5.47;2.88;;;5.50;99.90;;;;;;5015813;28;20061;-66
2024/01/31 06:28:43;;;;;;;6.40;2.72;;;5.40;99.90;;;;;;5015836;28;20037;-65
2024/01/31 06:31:24;;;;;;;5.93;1.98;;;5.50;99.90;;;;;;5015780;28;20395;-66
2024/01/31 06:33:50;;;;;;;7.35;3.55;;;5.50;99.90;;;;;;5015804;28;20037;-65
2024/01/31 06:36:15;;;;;;;5.68;2.83;;;5.50;99.90;;;;;;5015792;28;20117;-65
2024/01/31 06:38:41;;;;;;;4.32;2.60;;;5.50;99.90;;;;;;5015933;28;20057;-65
2024/01/31 06:41:07;;;;;;;7.00;2.47;;;5.40;99.90;;;;;;5015441;28;20156;-66
2024/01/31 06:43:33;;;;;;;4.70;2.58;;;5.50;99.90;;;;;;5015153;28;20090;-65
2024/01/31 06:45:58;;;;;;;5.80;2.20;;;5.50;99.90;;;;;;5015087;28;20049;-65
2024/01/31 06:48:24;;;;;;;7.30;3.50;;;5.50;99.90;;;;;;5014459;28;20037;-65
2024/01/31 06:50:50;;;;;;;8.18;3.85;;;5.50;99.90;;;;;;5015217;28;20034;-65
2024/01/31 06:53:16;;;;;;;5.30;3.00;;;5.50;99.90;;;;;;5014893;28;20060;-65
2024/01/31 06:55:41;;;;;;;10.13;4.40;;;5.50;99.90;;;;;;5013550;28;20025;-66
2024/01/31 06:58:07;;;;;;;5.20;3.15;;;5.50;99.90;;;;;;5009297;28;20040;-66
2024/01/31 07:00:32;;;;;;;6.78;3.28;;;5.50;99.90;;;;;;5015286;28;20041;-65
2024/01/31 07:02:58;;;;;;;7.63;3.10;;;5.50;99.90;;;;;;5015146;28;20037;-66
2024/01/31 07:05:23;;;;;;;6.95;3.28;;;5.50;99.90;;;;;;5021328;28;20029;-66
2024/01/31 07:07:50;;;;;;;10.15;3.40;;;5.50;99.90;;;;;;5015060;28;20048;-65
2024/01/31 07:10:16;;;;;;;7.78;3.40;;;5.50;99.90;;;;;;5005837;28;20034;-65
2024/01/31 07:12:41;;;;;;;11.55;3.90;;;5.50;99.90;;;;;;5026191;28;20030;-65
2024/01/31 07:15:07;;;;;;;7.70;3.60;;;5.40;99.90;;;;;;5014680;28;20072;-66
2024/01/31 07:17:33;;;;;;;4.75;3.05;;;5.50;99.90;;;;;;5015261;28;20384;-65
2024/01/31 07:19:58;;;;;;;5.93;3.75;;;5.50;99.90;;;;;;5015076;28;20044;-65
2024/01/31 07:22:24;;;;;;;6.50;3.13;;;5.50;99.90;;;;;;5014492;28;20434;-66
2024/01/31 07:24:49;;;;;;;7.53;3.40;;;5.50;99.90;;;;;;5010921;28;20041;-66
2024/01/31 07:27:15;;;;;;;7.78;3.40;;;5.50;99.90;;;;;;5019385;28;20075;-69
2024/01/31 07:29:46;;;;;;;7.43;3.60;;;5.50;99.90;;;;;;5015212;28;20148;-66
2024/01/31 07:32:11;;;;;;;7.38;3.53;;;5.50;99.90;;;;;;5012935;28;20042;-66
2024/01/31 07:34:37;;;;;;;6.75;2.53;;;5.50;99.90;;;;;;5014496;28;20045;-66
2024/01/31 07:37:04;;;;;;;3.65;2.55;;;5.50;99.90;;;;;;5009837;28;20341;-66
2024/01/31 07:39:30;;;;;;;4.30;2.60;;;5.50;99.90;;;;;;5017621;28;20080;-67
2024/01/31 07:41:55;;;;;;;8.10;2.90;;;5.40;99.90;;;;;;5018039;28;20514;-66
2024/01/31 07:44:21;;;;;;;4.10;2.30;;;5.50;99.90;;;;;;5020739;28;20084;-65
2024/01/31 07:46:46;;;;;;;7.53;2.38;;;5.50;99.90;;;;;;5015315;28;20061;-67
2024/01/31 07:49:12;;;;;;;4.13;2.15;;;5.50;99.90;;;;;;5011081;28;20034;-68
2024/01/31 07:51:42;;;;;;;4.45;2.25;;;5.50;99.90;;;;;;5010962;28;20030;-67
2024/01/31 07:54:07;;;;;;;3.72;2.20;;;5.50;99.90;;;;;;5017610;28;20395;-66
2024/01/31 07:56:33;;;;;;;4.60;2.22;;;5.50;99.90;;;;;;5020436;28;20037;-67
2024/01/31 07:58:58;;;;;;;7.20;2.50;;;5.50;99.90;;;;;;5014746;28;20025;-66
2024/01/31 08:01:24;;;;;;;3.50;2.03;;;5.50;99.90;;;;;;5013998;28;20028;-69
2024/01/31 08:03:49;;;;;;;6.78;2.80;;;5.50;99.90;;;;;;5011919;28;20034;-66
2024/01/31 08:06:15;;;;;;;5.32;2.40;;;5.60;99.90;;;;;;5011466;28;20038;-67
2024/01/31 08:08:42;;;;;;;4.28;2.08;;;5.60;99.90;;;;;;5012841;28;20042;-66
2024/01/31 08:11:07;;;;;;;7.03;2.40;;;5.60;99.90;;;;;;5013844;28;20116;-67
2024/01/31 08:13:34;;;;;;;6.72;2.22;;;5.60;99.90;;;;;;5014788;28;20213;-66
2024/01/31 08:15:59;;;;;;;4.22;2.08;;;5.70;99.90;;;;;;5022031;28;20490;-66
2024/01/31 08:18:25;;;;;;;6.57;2.53;;;5.70;99.90;;;;;;5030687;28;20025;-66
2024/01/31 08:20:50;;;;;;;4.78;2.60;;;5.60;99.90;;;;;;5013165;28;20108;-69
2024/01/31 08:23:16;;;;;;;7.40;2.17;;;5.60;99.90;;;;;;5010493;28;20025;-66
2024/01/31 08:25:41;;;;;;;7.68;2.50;;;5.60;99.90;;;;;;5012450;28;20033;-67
2024/01/31 08:28:07;;;;;;;4.53;2.70;;;5.70;99.90;;;;;;5016260;28;20026;-68
2024/01/31 08:30:33;;;;;;;6.38;2.65;;;5.70;99.90;;;;;;5014641;28;20018;-67
2024/01/31 08:32:59;;;;;;;5.00;2.45;;;5.70;99.90;;;;;;5011752;28;20026;-67
2024/01/31 08:35:25;;;;;;;6.10;2.25;;;5.70;99.90;;;;;;5011295;28;20050;-67
2024/01/31 08:37:51;;;;;;;6.55;3.65;;;5.70;99.90;;;;;;5015052;28;20491;-67
2024/01/31 08:40:17;;;;;;;6.75;3.13;;;5.70;99.90;;;;;;5010150;28;20028;-67
2024/01/31 08:42:42;;;;;;;7.53;2.75;;;5.70;99.90;;;;;;5008483;28;20101;-68
2024/01/31 08:45:09;;;;;;;4.10;2.60;;;5.80;99.90;;;;;;5008842;28;20054;-67
2024/01/31 08:47:35;;;;;;;7.10;3.63;;;5.80;99.90;;;;;;5008015;28;20030;-64
2024/01/31 08:50:01;;;;;;;7.28;3.88;;;5.80;99.90;;;;;;5008525;28;20026;-68
2024/01/31 08:52:26;;;;;;;6.65;3.63;;;5.80;99.90;;;;;;5015515;28;20073;-67
2024/01/31 08:54:52;;;;;;;5.38;3.42;;;5.80;99.90;;;;;;5014748;28;20029;-67
2024/01/31 08:57:18;;;;;;;8.60;3.50;;;5.80;99.90;;;;;;5014578;28;20104;-67
2024/01/31 08:59:43;;;;;;;6.18;3.63;;;5.80;99.90;;;;;;5025023;28;20022;-67
2024/01/31 09:02:09;;;;;;;7.63;4.05;;;5.80;99.90;;;;;;5024701;28;20068;-67
2024/01/31 09:04:35;;;;;;;7.57;4.10;;;5.90;99.90;;;;;;5014507;28;20030;-67
2024/01/31 09:07:00;;;;;;;9.40;3.88;;;5.80;99.90;;;;;;5010286;28;20026;-67
2024/01/31 09:09:26;;;;;;;8.90;4.20;;;5.90;99.90;;;;;;5012881;28;20388;-67
2024/01/31 09:11:52;;;;;;;7.55;3.80;;;5.80;99.90;;;;;;5013684;28;20034;-67
2024/01/31 09:14:18;;;;;;;7.50;4.13;;;5.80;99.90;;;;;;5011579;28;20026;-67
2024/01/31 09:16:43;;;;;;;7.97;4.40;;;5.90;99.90;;;;;;5022707;28;20032;-67
2024/01/31 09:19:09;;;;;;;9.30;4.15;;;5.90;99.90;;;;;;5017993;28;20037;-65
2024/01/31 09:21:35;;;;;;;6.95;3.58;;;5.90;99.90;;;;;;5011346;28;20030;-65
2024/01/31 09:24:01;;;;;;;8.40;4.00;;;5.90;99.90;;;;;;5007608;28;20468;-65
2024/01/31 09:26:26;;;;;;;9.82;4.53;;;5.90;99.90;;;;;;5018099;28;20061;-66
2024/01/31 09:28:55;;;;;;;9.63;4.90;;;5.90;99.90;;;;;;5009807;28;20108;-67
2024/01/31 09:31:23;;;;;;;8.10;4.65;;;5.90;99.90;;;;;;5014597;28;20034;-65
2024/01/31 09:33:50;;;;;;;9.00;4.45;;;5.90;99.90;;;;;;5011363;28;20040;-65
2024/01/31 09:36:16;;;;;;;7.93;4.28;;;6.00;99.90;;;;;;5015367;28;20081;-66
2024/01/31 09:38:41;;;;;;;7.68;4.97;;;6.00;99.90;;;;;;5014181;28;20065;-65
2024/01/31 09:41:07;;;;;;;10.73;4.80;;;6.00;99.90;;;;;;5013444;28;20369;-66
2024/01/31 09:43:32;;;;;;;12.43;6.45;;;6.00;97.30;;;;;;5016877;28;20056;-65
2024/01/31 09:46:01;;;;;;;11.30;5.40;;;6.00;96.30;;;;;;5018505;28;20032;-66
2024/01/31 09:48:29;;;;;;;16.40;6.38;;;6.10;96.40;;;;;;5015555;28;20364;-65
2024/01/31 09:50:55;;;;;;;11.27;5.60;;;6.10;93.00;;;;;;5016003;28;20036;-65
2024/01/31 09:53:22;;;;;;;11.73;5.53;;;6.10;90.60;;;;;;5015911;28;20033;-65
2024/01/31 09:55:52;;;;;;;9.77;5.78;;;6.10;90.80;;;;;;5015722;28;20030;-65
2024/01/31 09:58:18;;;;;;;15.30;8.32;;;6.20;80.00;;;;;;5014638;28;20025;-66
2024/01/31 10:00:44;;;;;;;16.73;7.43;;;6.20;78.00;;;;;;5015217;28;20120;-65
2024/01/31 10:03:10;;;;;;;13.90;7.07;;;6.30;80.10;;;;;;5015568;28;20028;-65
2024/01/31 10:05:35;;;;;;;13.02;6.00;;;6.40;78.40;;;;;;5013421;28;20037;-65
2024/01/31 10:08:02;;;;;;;12.38;6.35;;;6.40;80.50;;;;;;5015552;28;20038;-65
2024/01/31 10:10:28;;;;;;;11.20;6.45;;;6.40;60.80;;;;;;5015740;28;20030;-66
2024/01/31 10:12:54;;;;;;;11.98;6.10;;;6.40;46.30;;;;;;5015505;28;20045;-65
2024/01/31 10:15:20;;;;;;;11.55;6.32;;;6.40;46.90;;;;;;5015024;28;20116;-65
2024/01/31 10:17:45;;;;;;;15.95;6.20;;;6.50;51.60;;;;;;5015414;28;20117;-65
2024/01/31 10:20:13;;;;;;;12.25;5.97;;;6.50;49.40;;;;;;5014440;28;20080;-65
2024/01/31 10:22:38;;;;;;;11.93;7.00;;;6.50;29.70;;;;;;5014900;28;20480;-64
2024/01/31 10:25:05;;;;;;;10.52;6.03;;;6.50;38.70;;;;;;5015124;28;20028;-64
2024/01/31 10:27:34;;;;;;;11.48;6.75;;;6.50;44.10;;;;;;5014465;28;20025;-65
2024/01/31 10:30:02;;;;;;;13.52;6.65;;;6.50;8.90;;;;;;5016126;28;20399;-64
2024/01/31 10:32:28;;;;;;;12.55;7.15;;;6.60;11.20;;;;;;5024565;28;20025;-65
2024/01/31 10:34:55;;;;;;;14.48;7.25;;;5.30;17.70;;;;;;5022866;28;20037;-64
2024/01/31 10:37:22;;;;;;;12.93;6.88;;;6.60;9.00;;;;;;5018504;28;20121;-64
2024/01/31 10:39:48;;;;;;;14.45;7.03;;;6.70;1.00;;;;;;5022337;28;20022;-65
2024/01/31 10:42:15;;;;;;;13.27;8.20;;;6.50;1.00;;;;;;5015025;28;20041;-65
2024/01/31 10:44:43;;;;;;;13.15;7.80;;;6.50;1.00;;;;;;5020476;28;20053;-65
2024/01/31 10:47:09;;;;;;;15.82;9.55;;;6.60;5.00;;;;;;5006820;28;20033;-65
2024/01/31 10:49:34;;;;;;;13.63;7.65;;;6.60;2.80;;;;;;5018718;28;20099;-66
2024/01/31 10:52:03;;;;;;;13.57;9.05;;;6.60;1.00;;;;;;5014159;28;20420;-66
2024/01/31 10:54:33;;;;;;;13.85;8.40;;;6.60;1.00;;;;;;5004701;28;20621;-66
2024/01/31 10:56:59;;;;;;;16.63;9.00;;;6.60;1.00;;;;;;5028583;28;20018;-66
2024/01/31 10:59:25;;;;;;;19.90;9.60;;;6.60;1.00;;;;;;5014910;28;20037;-66
2024/01/31 11:01:58;;;;;;;18.23;9.95;;;6.60;1.00;;;;;;5013341;28;20140;-66
2024/01/31 11:04:24;;;;;;;17.52;9.38;;;6.70;1.00;;;;;;5012783;28;20403;-67
2024/01/31 11:06:50;;;;;;;16.88;10.20;;;6.70;1.00;;;;;;5013217;28;20139;-66
2024/01/31 11:09:22;;;;;;;19.23;10.80;;;6.80;1.00;;;;;;5013388;28;20044;-66
2024/01/31 11:12:00;;;;;;;19.52;10.40;;;6.80;1.00;;;;;;5014060;28;20523;-66
2024/01/31 11:14:28;;;;;;;22.98;10.60;;;6.90;1.00;;;;;;5010664;28;20030;-66
2024/01/31 11:17:05;;;;;;;20.88;9.95;;;7.00;1.00;;;;;;5013615;28;20037;-66
2024/01/31 11:19:32;;;;;;;17.33;9.75;;;7.10;1.00;;;;;;5013290;28;20060;-66
2024/01/31 11:22:00;;;;;;;15.65;8.95;;;7.10;1.00;;;;;;5015021;28;20034;-67
2024/01/31 11:24:26;;;;;;;18.70;9.30;;;7.20;1.00;;;;;;5018086;28;20470;-66
2024/01/31 11:26:51;;;;;;;18.85;9.32;;;7.20;1.00;;;;;;5014229;28;20113;-67
2024/01/31 11:29:17;;;;;;;14.93;9.27;;;7.20;1.00;;;;;;5013444;28;20026;-66
2024/01/31 11:31:43;;;;;;;15.13;9.35;;;7.20;1.00;;;;;;5013639;28;20034;-66
2024/01/31 11:34:09;;;;;;;21.67;9.93;;;7.10;1.00;;;;;;5013204;28;20084;-66
2024/01/31 11:36:34;;;;;;;15.38;9.18;;;7.10;1.00;;;;;;5012990;28;20034;-66
2024/01/31 11:39:00;;;;;;;16.90;9.40;;;7.10;1.00;;;;;;5014469;28;20029;-66
2024/01/31 11:41:25;;;;;;;20.08;10.85;;;7.20;1.00;;;;;;5013552;28;20041;-66
2024/01/31 11:43:51;;;;;;;15.60;10.50;;;7.20;1.00;;;;;;5013890;28;20037;-66
2024/01/31 11:46:17;;;;;;;16.63;9.93;;;7.20;1.00;;;;;;5014145;28;20041;-66
2024/01/31 11:48:42;;;;;;;18.85;10.52;;;7.20;1.00;;;;;;5003783;28;20026;-67
2024/01/31 11:51:08;;;;;;;23.33;10.88;;;7.30;1.00;;;;;;5013514;28;20037;-66
2024/01/31 11:53:34;;;;;;;24.92;12.00;;;7.30;1.00;;;;;;5011831;28;20050;-67
2024/01/31 11:56:00;;;;;;;20.38;11.93;;;7.30;1.00;;;;;;5013357;28;20060;-67
2024/01/31 11:58:26;;;;;;;21.20;11.63;;;7.30;1.00;;;;;;5012338;28;20571;-66
2024/01/31 12:00:51;;;;;;;24.00;13.68;;;7.30;1.00;;;;;;5014445;28;20143;-66
2024/01/31 12:03:19;;;;;;;19.30;11.93;;;7.50;1.00;;;;;;5011960;28;20038;-68
2024/01/31 12:05:53;;;;;;;23.17;11.10;;;7.60;1.00;;;;;;5013851;28;20040;-66
2024/01/31 12:08:19;;;;;;;18.63;11.40;;;7.60;1.00;;;;;;5030997;28;20376;-66
2024/01/31 12:10:45;;;;;;;25.95;12.10;;;7.60;1.00;;;;;;5017305;28;20022;-68
2024/01/31 12:13:11;;;;;;;22.15;12.02;;;7.60;1.00;;;;;;5013224;28;20131;-67
2024/01/31 12:15:36;;;;;;;23.83;11.88;;;7.70;1.00;;;;;;5017256;28;20038;-67
2024/01/31 12:18:02;;;;;;;21.95;12.77;;;7.70;1.00;;;;;;5014655;28;20034;-66
2024/01/31 12:20:28;;;;;;;21.42;11.77;;;7.70;1.00;;;;;;5021392;28;20093;-66
2024/01/31 12:22:53;;;;;;;21.13;12.25;;;7.90;1.00;;;;;;5013033;28;20030;-67
2024/01/31 12:25:19;;;;;;;23.27;12.30;;;8.00;1.00;;;;;;5012406;28;20387;-67
2024/01/31 12:27:44;;;;;;;22.15;12.68;;;8.00;1.00;;;;;;5012186;28;20041;-67
2024/01/31 12:30:11;;;;;;;19.83;13.00;;;7.90;1.00;;;;;;5011415;28;20022;-67
2024/01/31 12:32:36;;;;;;;24.88;12.73;;;7.80;1.00;;;;;;5012417;28;20494;-67
2024/01/31 12:35:02;;;;;;;21.33;11.43;;;7.90;1.00;;;;;;5011750;28;20028;-67
2024/01/31 12:37:28;;;;;;;20.98;11.40;;;7.80;1.00;;;;;;5011532;28;20030;-67
2024/01/31 12:39:54;;;;;;;20.20;11.70;;;7.80;1.00;;;;;;5014983;28;20410;-67
2024/01/31 12:42:20;;;;;;;19.88;11.90;;;7.90;1.00;;;;;;5011280;28;20022;-66
2024/01/31 12:44:45;;;;;;;21.15;12.63;;;7.90;1.00;;;;;;5012626;28;20095;-67